createdAt,value
2017-11-15T00:01:04.670Z,0
2017-11-15T00:02:12.759Z,0
2017-11-15T00:03:20.861Z,0
2017-11-15T00:04:28.950Z,0
2017-11-15T00:05:37.030Z,0
2017-11-15T00:06:45.118Z,0
2017-11-15T00:07:53.208Z,0
2017-11-15T00:09:01.309Z,0
2017-11-15T00:10:09.377Z,0
2017-11-15T00:11:17.461Z,0
2017-11-15T00:12:25.550Z,0
2017-11-15T00:13:33.632Z,0
2017-11-15T00:14:41.723Z,0
2017-11-15T00:15:49.804Z,0
2017-11-15T00:16:57.899Z,0
2017-11-15T00:18:05.978Z,0
2017-11-15T00:19:14.064Z,0
2017-11-15T00:20:22.148Z,0
2017-11-15T00:21:30.241Z,0
2017-11-15T00:22:38.323Z,0
2017-11-15T00:23:46.458Z,0
2017-11-15T00:24:54.542Z,0
2017-11-15T00:26:02.631Z,0
2017-11-15T00:27:10.735Z,0
2017-11-15T00:28:18.817Z,0
2017-11-15T00:29:26.891Z,0
2017-11-15T00:30:34.977Z,0
2017-11-15T00:31:43.062Z,0
2017-11-15T00:32:51.146Z,0
2017-11-15T00:33:59.234Z,0
2017-11-15T00:35:07.318Z,0
2017-11-15T00:36:15.404Z,0
2017-11-15T00:37:23.494Z,0
2017-11-15T00:38:31.598Z,0
2017-11-15T00:39:39.671Z,0
2017-11-15T00:40:47.754Z,0
2017-11-15T00:41:55.838Z,0
2017-11-15T00:43:03.919Z,0
2017-11-15T00:44:12.008Z,0
2017-11-15T00:45:20.095Z,0
2017-11-15T00:46:28.187Z,0
2017-11-15T00:47:36.265Z,0
2017-11-15T00:48:44.408Z,0
2017-11-15T00:49:52.496Z,0
2017-11-15T00:51:00.594Z,0
2017-11-15T00:52:08.684Z,0
2017-11-15T00:53:16.762Z,0
2017-11-15T00:54:25.145Z,0
2017-11-15T00:55:32.949Z,0
2017-11-15T00:56:41.021Z,0
2017-11-15T00:57:49.109Z,0
2017-11-15T00:58:57.196Z,0
2017-11-15T01:00:05.282Z,0
2017-11-15T01:01:13.366Z,0
2017-11-15T01:02:21.453Z,0
2017-11-15T01:03:29.538Z,0
2017-11-15T01:04:37.628Z,0
2017-11-15T01:05:45.713Z,0
2017-11-15T01:06:53.797Z,0
2017-11-15T01:08:01.910Z,0
2017-11-15T01:09:09.997Z,0
2017-11-15T01:10:18.079Z,0
2017-11-15T01:11:26.163Z,0
2017-11-15T01:12:34.250Z,0
2017-11-15T01:13:42.350Z,0
2017-11-15T01:14:50.423Z,0
2017-11-15T01:15:58.509Z,0
2017-11-15T01:17:06.592Z,0
2017-11-15T01:18:14.691Z,0
2017-11-15T01:19:22.784Z,0
2017-11-15T01:20:30.894Z,0
2017-11-15T01:21:38.964Z,0
2017-11-15T01:22:47.044Z,0
2017-11-15T01:23:55.129Z,0
2017-11-15T01:25:03.222Z,0
2017-11-15T01:26:11.309Z,0
2017-11-15T01:27:19.397Z,0
2017-11-15T01:28:27.485Z,0
2017-11-15T01:29:35.569Z,0
2017-11-15T01:30:43.655Z,0
2017-11-15T01:31:51.750Z,0
2017-11-15T01:32:59.841Z,0
2017-11-15T01:34:07.923Z,0
2017-11-15T01:35:16.011Z,0
2017-11-15T01:36:24.099Z,0
2017-11-15T01:37:32.199Z,0
2017-11-15T01:38:40.281Z,0
2017-11-15T01:39:48.364Z,0
2017-11-15T01:40:56.458Z,0
2017-11-15T01:42:04.537Z,0
2017-11-15T01:43:12.624Z,0
2017-11-15T01:44:20.743Z,0
2017-11-15T01:45:28.823Z,0
2017-11-15T01:46:36.913Z,0
2017-11-15T01:47:45.030Z,0
2017-11-15T01:48:53.083Z,0
2017-11-15T01:50:01.362Z,0
2017-11-15T01:51:09.252Z,0
2017-11-15T01:52:17.336Z,0
2017-11-15T01:53:25.424Z,0
2017-11-15T01:54:33.512Z,0
2017-11-15T01:55:41.598Z,0
2017-11-15T01:56:49.702Z,0
2017-11-15T01:57:57.771Z,0
2017-11-15T01:59:05.882Z,0
2017-11-15T02:00:13.956Z,0
2017-11-15T02:01:22.033Z,0
2017-11-15T02:02:30.119Z,0
2017-11-15T02:03:38.208Z,0
2017-11-15T02:04:46.294Z,0
2017-11-15T02:05:54.377Z,0
2017-11-15T02:07:02.465Z,0
2017-11-15T02:08:10.547Z,0
2017-11-15T02:09:18.637Z,0
2017-11-15T02:10:26.723Z,0
2017-11-15T02:11:34.809Z,0
2017-11-15T02:12:42.896Z,0
2017-11-15T02:13:50.994Z,0
2017-11-15T02:14:59.071Z,0
2017-11-15T02:16:07.160Z,0
2017-11-15T02:17:15.236Z,0
2017-11-15T02:18:23.343Z,0
2017-11-15T02:19:31.420Z,0
2017-11-15T02:20:39.507Z,0
2017-11-15T02:21:47.593Z,0
2017-11-15T02:22:55.675Z,0
2017-11-15T02:24:03.760Z,0
2017-11-15T02:25:11.867Z,0
2017-11-15T02:26:19.932Z,0
2017-11-15T02:27:28.020Z,0
2017-11-15T02:28:36.109Z,0
2017-11-15T02:29:44.193Z,0
2017-11-15T02:30:52.274Z,0
2017-11-15T02:32:00.362Z,0
2017-11-15T02:33:08.472Z,0
2017-11-15T02:34:16.541Z,0
2017-11-15T02:35:24.617Z,0
2017-11-15T02:36:32.730Z,0
2017-11-15T02:37:40.795Z,0
2017-11-15T02:38:48.884Z,0
2017-11-15T02:39:56.967Z,0
2017-11-15T02:41:05.055Z,0
2017-11-15T02:42:13.141Z,0
2017-11-15T02:43:21.229Z,0
2017-11-15T02:44:29.315Z,0
2017-11-15T02:45:37.392Z,0
2017-11-15T02:46:45.486Z,0
2017-11-15T02:47:53.567Z,0
2017-11-15T02:49:01.668Z,0
2017-11-15T02:50:09.740Z,0
2017-11-15T02:51:17.826Z,0
2017-11-15T02:52:25.924Z,0
2017-11-15T02:53:33.996Z,0
2017-11-15T02:54:42.089Z,0
2017-11-15T02:55:50.162Z,0
2017-11-15T02:56:58.262Z,0
2017-11-15T02:58:06.357Z,0
2017-11-15T02:59:14.446Z,0
2017-11-15T03:00:22.525Z,0
2017-11-15T03:01:30.612Z,0
2017-11-15T03:02:38.704Z,0
2017-11-15T03:03:47.235Z,0
2017-11-15T03:04:55.324Z,0
2017-11-15T03:06:02.953Z,0
2017-11-15T03:07:11.049Z,0
2017-11-15T03:08:19.135Z,0
2017-11-15T03:09:27.210Z,0
2017-11-15T03:10:35.292Z,0
2017-11-15T03:11:43.379Z,0
2017-11-15T03:12:51.465Z,0
2017-11-15T03:13:59.556Z,0
2017-11-15T03:15:07.646Z,0
2017-11-15T03:16:15.729Z,0
2017-11-15T03:17:23.810Z,0
2017-11-15T03:18:31.891Z,0
2017-11-15T03:19:39.974Z,0
2017-11-15T03:20:48.061Z,0
2017-11-15T03:21:56.148Z,0
2017-11-15T03:23:04.233Z,0
2017-11-15T03:24:12.319Z,0
2017-11-15T03:25:20.401Z,0
2017-11-15T03:26:28.489Z,0
2017-11-15T03:27:36.573Z,0
2017-11-15T03:28:44.665Z,0
2017-11-15T03:29:52.823Z,0
2017-11-15T03:31:00.829Z,0
2017-11-15T03:32:08.913Z,0
2017-11-15T03:33:16.999Z,0
2017-11-15T03:34:25.088Z,0
2017-11-15T03:35:33.171Z,0
2017-11-15T03:36:41.256Z,0
2017-11-15T03:37:49.348Z,0
2017-11-15T03:38:57.425Z,0
2017-11-15T03:40:05.511Z,0
2017-11-15T03:41:13.592Z,0
2017-11-15T03:42:22.260Z,0
2017-11-15T03:43:30.345Z,0
2017-11-15T03:44:38.431Z,0
2017-11-15T03:45:46.514Z,0
2017-11-15T03:46:54.598Z,0
2017-11-15T03:48:02.685Z,0
2017-11-15T03:49:10.770Z,0
2017-11-15T03:50:18.856Z,0
2017-11-15T03:51:26.940Z,0
2017-11-15T03:52:35.043Z,0
2017-11-15T03:53:43.420Z,0
2017-11-15T03:54:51.520Z,0
2017-11-15T03:55:59.595Z,0
2017-11-15T03:57:07.678Z,0
2017-11-15T03:58:15.764Z,0
2017-11-15T03:59:23.843Z,0
2017-11-15T04:00:31.930Z,0
2017-11-15T04:01:40.014Z,0
2017-11-15T04:02:48.102Z,0
2017-11-15T04:03:56.183Z,0
2017-11-15T04:05:04.267Z,0
2017-11-15T04:06:12.355Z,0
2017-11-15T04:07:20.442Z,0
2017-11-15T04:08:28.525Z,0
2017-11-15T04:09:36.619Z,0
2017-11-15T04:10:44.707Z,0
2017-11-15T04:11:52.804Z,0
2017-11-15T04:13:00.901Z,0
2017-11-15T04:14:08.985Z,0
2017-11-15T04:15:17.065Z,0
2017-11-15T04:16:25.155Z,0
2017-11-15T04:17:33.235Z,0
2017-11-15T04:18:41.319Z,0
2017-11-15T04:19:49.406Z,0
2017-11-15T04:20:57.486Z,0
2017-11-15T04:22:05.616Z,0
2017-11-15T04:23:13.658Z,0
2017-11-15T04:24:21.743Z,0
2017-11-15T04:25:29.828Z,0
2017-11-15T04:26:37.911Z,0
2017-11-15T04:27:46.010Z,0
2017-11-15T04:28:54.085Z,0
2017-11-15T04:30:02.164Z,0
2017-11-15T04:31:10.252Z,0
2017-11-15T04:32:18.333Z,0
2017-11-15T04:33:26.437Z,0
2017-11-15T04:34:34.524Z,0
2017-11-15T04:35:42.607Z,0
2017-11-15T04:36:50.690Z,0
2017-11-15T04:37:58.774Z,0
2017-11-15T04:39:07.104Z,0
2017-11-15T04:40:15.195Z,0
2017-11-15T04:41:23.269Z,0
2017-11-15T04:42:31.356Z,0
2017-11-15T04:43:39.440Z,0
2017-11-15T04:44:47.523Z,0
2017-11-15T04:45:55.608Z,0
2017-11-15T04:47:03.700Z,0
2017-11-15T04:48:11.791Z,0
2017-11-15T04:49:19.867Z,0
2017-11-15T04:50:27.945Z,0
2017-11-15T04:51:36.027Z,0
2017-11-15T04:52:44.118Z,0
2017-11-15T04:53:52.199Z,0
2017-11-15T04:55:00.285Z,0
2017-11-15T04:56:08.371Z,0
2017-11-15T04:57:16.457Z,0
2017-11-15T04:58:24.540Z,0
2017-11-15T04:59:32.621Z,0
2017-11-15T05:00:40.704Z,0
2017-11-15T05:01:48.789Z,0
2017-11-15T05:02:56.880Z,0
2017-11-15T05:04:04.963Z,0
2017-11-15T05:05:13.046Z,0
2017-11-15T05:06:21.130Z,0
2017-11-15T05:07:29.210Z,0
2017-11-15T05:08:37.300Z,0
2017-11-15T05:09:45.378Z,0
2017-11-15T05:10:53.470Z,0
2017-11-15T05:12:01.546Z,0
2017-11-15T05:13:09.632Z,0
2017-11-15T05:14:17.719Z,0
2017-11-15T05:15:25.801Z,0
2017-11-15T05:16:33.887Z,0
2017-11-15T05:17:41.972Z,0
2017-11-15T05:18:50.074Z,0
2017-11-15T05:19:58.137Z,0
2017-11-15T05:21:06.222Z,0
2017-11-15T05:22:14.305Z,0
2017-11-15T05:23:22.392Z,0
2017-11-15T05:24:30.474Z,0
2017-11-15T05:25:38.571Z,0
2017-11-15T05:26:46.645Z,0
2017-11-15T05:27:54.731Z,0
2017-11-15T05:29:02.814Z,0
2017-11-15T05:30:10.894Z,0
2017-11-15T05:31:18.980Z,0
2017-11-15T05:32:27.064Z,0
2017-11-15T05:33:35.148Z,0
2017-11-15T05:34:43.233Z,0
2017-11-15T05:35:51.317Z,0
2017-11-15T05:36:59.400Z,0
2017-11-15T05:38:07.484Z,0
2017-11-15T05:39:15.567Z,0
2017-11-15T05:40:23.651Z,0
2017-11-15T05:41:32.283Z,0
2017-11-15T05:42:39.841Z,0
2017-11-15T05:43:47.904Z,0
2017-11-15T05:44:55.995Z,0
2017-11-15T05:46:04.077Z,0
2017-11-15T05:47:12.157Z,0
2017-11-15T05:48:20.245Z,0
2017-11-15T05:49:28.326Z,0
2017-11-15T05:50:36.409Z,0
2017-11-15T05:51:44.489Z,0
2017-11-15T05:52:52.665Z,0
2017-11-15T05:54:00.666Z,0
2017-11-15T05:55:08.749Z,0
2017-11-15T05:56:16.830Z,0
2017-11-15T05:57:24.932Z,0
2017-11-15T05:58:33.000Z,0
2017-11-15T05:59:41.083Z,0
2017-11-15T06:00:49.212Z,0
2017-11-15T06:01:57.334Z,0
2017-11-15T06:03:05.463Z,0
2017-11-15T06:04:14.087Z,0
2017-11-15T06:05:21.725Z,0
2017-11-15T06:06:29.598Z,0
2017-11-15T06:07:37.681Z,0
2017-11-15T06:08:45.768Z,0
2017-11-15T06:09:53.951Z,0
2017-11-15T06:11:02.026Z,0
2017-11-15T06:12:10.694Z,0
2017-11-15T06:13:18.112Z,0
2017-11-15T06:14:26.352Z,0
2017-11-15T06:15:34.415Z,0
2017-11-15T06:16:42.495Z,0
2017-11-15T06:17:50.648Z,0
2017-11-15T06:18:58.663Z,0
2017-11-15T06:20:06.804Z,0
2017-11-15T06:21:14.885Z,0
2017-11-15T06:22:22.948Z,0
2017-11-15T06:23:31.053Z,0
2017-11-15T06:24:39.090Z,0
2017-11-15T06:25:47.141Z,0
2017-11-15T06:26:55.291Z,0
2017-11-15T06:28:03.388Z,0
2017-11-15T06:29:11.379Z,0
2017-11-15T06:30:19.589Z,0
2017-11-15T06:31:27.632Z,0
2017-11-15T06:32:35.665Z,4
2017-11-15T06:33:43.819Z,4
2017-11-15T06:34:51.847Z,4
2017-11-15T06:35:59.931Z,0
2017-11-15T06:37:07.977Z,0
2017-11-15T06:38:16.066Z,0
2017-11-15T06:39:24.148Z,0
2017-11-15T06:40:32.234Z,0
2017-11-15T06:41:40.317Z,0
2017-11-15T06:42:48.403Z,4
2017-11-15T06:43:56.486Z,4
2017-11-15T06:45:04.573Z,4
2017-11-15T06:46:12.663Z,4
2017-11-15T06:47:20.762Z,4
2017-11-15T06:48:28.842Z,4
2017-11-15T06:49:36.939Z,4
2017-11-15T06:50:45.024Z,4
2017-11-15T06:51:53.106Z,0
2017-11-15T06:53:01.190Z,0
2017-11-15T06:54:09.273Z,4
2017-11-15T06:55:17.365Z,4
2017-11-15T06:56:25.444Z,4
2017-11-15T06:57:33.528Z,4
2017-11-15T06:58:41.612Z,4
2017-11-15T06:59:49.693Z,4
2017-11-15T07:00:57.774Z,4
2017-11-15T07:02:05.861Z,4
2017-11-15T07:03:14.076Z,4
2017-11-15T07:04:22.158Z,4
2017-11-15T07:05:30.241Z,4
2017-11-15T07:06:38.324Z,8
2017-11-15T07:07:46.408Z,8
2017-11-15T07:08:54.490Z,8
2017-11-15T07:10:02.577Z,8
2017-11-15T07:11:10.661Z,8
2017-11-15T07:12:19.858Z,8
2017-11-15T07:13:27.957Z,4
2017-11-15T07:14:36.348Z,8
2017-11-15T07:15:44.110Z,8
2017-11-15T07:16:52.193Z,8
2017-11-15T07:18:00.285Z,4
2017-11-15T07:19:08.360Z,4
2017-11-15T07:20:16.445Z,8
2017-11-15T07:21:24.529Z,8
2017-11-15T07:22:32.613Z,8
2017-11-15T07:23:40.709Z,8
2017-11-15T07:24:48.781Z,8
2017-11-15T07:25:56.873Z,8
2017-11-15T07:27:04.951Z,4
2017-11-15T07:28:13.036Z,8
2017-11-15T07:29:21.122Z,8
2017-11-15T07:30:29.203Z,8
2017-11-15T07:31:37.286Z,8
2017-11-15T07:32:45.379Z,12
2017-11-15T07:33:53.466Z,12
2017-11-15T07:35:01.549Z,8
2017-11-15T07:36:09.631Z,8
2017-11-15T07:37:17.717Z,8
2017-11-15T07:38:25.805Z,12
2017-11-15T07:39:33.892Z,8
2017-11-15T07:40:41.980Z,12
2017-11-15T07:41:50.060Z,12
2017-11-15T07:42:58.474Z,8
2017-11-15T07:44:06.567Z,8
2017-11-15T07:45:14.663Z,8
2017-11-15T07:46:22.730Z,8
2017-11-15T07:47:30.814Z,12
2017-11-15T07:48:39.083Z,12
2017-11-15T07:49:47.170Z,8
2017-11-15T07:50:55.251Z,12
2017-11-15T07:52:03.337Z,12
2017-11-15T07:53:11.427Z,8
2017-11-15T07:54:19.506Z,8
2017-11-15T07:55:27.610Z,12
2017-11-15T07:56:35.678Z,12
2017-11-15T07:57:43.780Z,12
2017-11-15T07:58:52.105Z,8
2017-11-15T08:00:00.182Z,12
2017-11-15T08:01:08.267Z,12
2017-11-15T08:02:16.353Z,8
2017-11-15T08:03:24.432Z,8
2017-11-15T08:04:32.526Z,12
2017-11-15T08:05:40.601Z,8
2017-11-15T08:06:48.689Z,12
2017-11-15T08:07:56.775Z,12
2017-11-15T08:09:04.860Z,12
2017-11-15T08:10:13.244Z,12
2017-11-15T08:11:21.038Z,12
2017-11-15T08:12:29.121Z,12
2017-11-15T08:13:37.206Z,12
2017-11-15T08:14:45.288Z,12
2017-11-15T08:15:53.599Z,12
2017-11-15T08:17:01.684Z,12
2017-11-15T08:18:09.775Z,24
2017-11-15T08:19:17.851Z,12
2017-11-15T08:20:25.948Z,16
2017-11-15T08:21:34.020Z,24
2017-11-15T08:22:42.108Z,24
2017-11-15T08:23:50.193Z,28
2017-11-15T08:24:58.285Z,28
2017-11-15T08:26:06.368Z,28
2017-11-15T08:27:14.453Z,28
2017-11-15T08:28:22.556Z,32
2017-11-15T08:29:30.628Z,36
2017-11-15T08:30:38.724Z,32
2017-11-15T08:31:46.804Z,32
2017-11-15T08:32:54.967Z,32
2017-11-15T08:34:02.986Z,36
2017-11-15T08:35:11.062Z,32
2017-11-15T08:36:19.142Z,32
2017-11-15T08:37:27.235Z,32
2017-11-15T08:38:36.012Z,32
2017-11-15T08:39:43.407Z,32
2017-11-15T08:40:51.498Z,32
2017-11-15T08:41:59.585Z,32
2017-11-15T08:43:07.674Z,28
2017-11-15T08:44:15.752Z,28
2017-11-15T08:45:23.837Z,28
2017-11-15T08:46:31.923Z,32
2017-11-15T08:47:40.023Z,28
2017-11-15T08:48:48.101Z,28
2017-11-15T08:49:56.181Z,28
2017-11-15T08:51:04.269Z,28
2017-11-15T08:52:12.351Z,32
2017-11-15T08:53:20.440Z,32
2017-11-15T08:54:28.520Z,32
2017-11-15T08:55:36.605Z,32
2017-11-15T08:56:44.687Z,32
2017-11-15T08:57:52.979Z,28
2017-11-15T08:59:01.063Z,28
2017-11-15T09:00:09.312Z,32
2017-11-15T09:01:17.399Z,32
2017-11-15T09:02:25.496Z,32
2017-11-15T09:03:33.596Z,32
2017-11-15T09:04:41.677Z,32
2017-11-15T09:05:49.770Z,28
2017-11-15T09:06:57.838Z,32
2017-11-15T09:08:05.925Z,32
2017-11-15T09:09:14.007Z,32
2017-11-15T09:10:22.093Z,32
2017-11-15T09:11:30.180Z,32
2017-11-15T09:12:38.261Z,32
2017-11-15T09:13:46.347Z,32
2017-11-15T09:14:54.429Z,32
2017-11-15T09:16:02.531Z,32
2017-11-15T09:17:10.598Z,32
2017-11-15T09:18:18.689Z,32
2017-11-15T09:19:26.774Z,32
2017-11-15T09:20:34.861Z,36
2017-11-15T09:21:42.937Z,32
2017-11-15T09:22:51.029Z,32
2017-11-15T09:23:59.141Z,36
2017-11-15T09:25:07.198Z,36
2017-11-15T09:26:15.342Z,32
2017-11-15T09:27:23.371Z,32
2017-11-15T09:28:31.455Z,36
2017-11-15T09:29:39.538Z,36
2017-11-15T09:30:47.622Z,36
2017-11-15T09:31:55.723Z,32
2017-11-15T09:33:03.789Z,32
2017-11-15T09:34:11.877Z,36
2017-11-15T09:35:19.982Z,36
2017-11-15T09:36:28.046Z,32
2017-11-15T09:37:36.136Z,36
2017-11-15T09:38:44.213Z,36
2017-11-15T09:39:52.299Z,36
2017-11-15T09:41:00.383Z,32
2017-11-15T09:42:08.467Z,36
2017-11-15T09:43:16.550Z,36
2017-11-15T09:44:24.641Z,36
2017-11-15T09:45:32.734Z,36
2017-11-15T09:46:40.810Z,36
2017-11-15T09:47:48.896Z,32
2017-11-15T09:48:56.972Z,36
2017-11-15T09:50:05.062Z,32
2017-11-15T09:51:13.160Z,36
2017-11-15T09:52:21.228Z,36
2017-11-15T09:53:29.313Z,36
2017-11-15T09:54:37.398Z,32
2017-11-15T09:55:45.481Z,36
2017-11-15T09:56:53.567Z,32
2017-11-15T09:58:01.653Z,36
2017-11-15T09:59:09.741Z,32
2017-11-15T10:00:17.826Z,28
2017-11-15T10:01:25.909Z,32
2017-11-15T10:02:33.998Z,36
2017-11-15T10:03:42.078Z,40
2017-11-15T10:04:50.162Z,32
2017-11-15T10:05:58.248Z,32
2017-11-15T10:07:06.336Z,28
2017-11-15T10:08:14.417Z,36
2017-11-15T10:09:22.502Z,32
2017-11-15T10:10:30.588Z,36
2017-11-15T10:11:38.698Z,32
2017-11-15T10:12:46.769Z,36
2017-11-15T10:13:54.849Z,36
2017-11-15T10:15:02.935Z,32
2017-11-15T10:16:11.018Z,32
2017-11-15T10:17:19.113Z,36
2017-11-15T10:18:27.207Z,36
2017-11-15T10:19:35.292Z,36
2017-11-15T10:20:43.379Z,40
2017-11-15T10:21:51.462Z,36
2017-11-15T10:22:59.565Z,32
2017-11-15T10:24:07.629Z,36
2017-11-15T10:25:15.726Z,36
2017-11-15T10:26:23.807Z,32
2017-11-15T10:27:31.891Z,36
2017-11-15T10:28:39.993Z,36
2017-11-15T10:29:48.065Z,36
2017-11-15T10:30:56.143Z,32
2017-11-15T10:32:04.227Z,36
2017-11-15T10:33:12.313Z,32
2017-11-15T10:34:20.398Z,32
2017-11-15T10:35:28.489Z,36
2017-11-15T10:36:36.568Z,32
2017-11-15T10:37:44.651Z,36
2017-11-15T10:38:52.736Z,32
2017-11-15T10:40:00.840Z,32
2017-11-15T10:41:08.916Z,32
2017-11-15T10:42:16.999Z,32
2017-11-15T10:43:25.158Z,32
2017-11-15T10:44:33.626Z,32
2017-11-15T10:45:41.710Z,32
2017-11-15T10:46:49.800Z,32
2017-11-15T10:47:57.883Z,32
2017-11-15T10:49:05.972Z,32
2017-11-15T10:50:14.058Z,32
2017-11-15T10:51:22.142Z,32
2017-11-15T10:52:30.226Z,32
2017-11-15T10:53:38.333Z,32
2017-11-15T10:54:46.394Z,32
2017-11-15T10:55:54.481Z,32
2017-11-15T10:57:02.564Z,32
2017-11-15T10:58:10.654Z,32
2017-11-15T10:59:18.735Z,32
2017-11-15T11:00:26.815Z,32
2017-11-15T11:01:34.903Z,32
2017-11-15T11:02:43.006Z,32
2017-11-15T11:03:51.069Z,32
2017-11-15T11:04:59.156Z,32
2017-11-15T11:06:07.252Z,32
2017-11-15T11:07:15.334Z,32
2017-11-15T11:08:23.420Z,32
2017-11-15T11:09:31.502Z,32
2017-11-15T11:10:39.587Z,32
2017-11-15T11:11:47.670Z,32
2017-11-15T11:12:55.758Z,32
2017-11-15T11:14:03.841Z,32
2017-11-15T11:15:11.933Z,32
2017-11-15T11:16:20.009Z,28
2017-11-15T11:17:28.090Z,32
2017-11-15T11:18:36.177Z,28
2017-11-15T11:19:44.263Z,32
2017-11-15T11:20:52.349Z,32
2017-11-15T11:22:00.431Z,28
2017-11-15T11:23:08.517Z,28
2017-11-15T11:24:16.601Z,32
2017-11-15T11:25:24.693Z,28
2017-11-15T11:26:33.200Z,32
2017-11-15T11:27:41.286Z,28
2017-11-15T11:28:49.373Z,28
2017-11-15T11:29:57.455Z,32
2017-11-15T11:31:05.540Z,28
2017-11-15T11:32:13.622Z,28
2017-11-15T11:33:21.725Z,28
2017-11-15T11:34:29.791Z,28
2017-11-15T11:35:37.875Z,28
2017-11-15T11:36:45.961Z,28
2017-11-15T11:37:54.047Z,28
2017-11-15T11:39:02.126Z,28
2017-11-15T11:40:10.221Z,32
2017-11-15T11:41:18.302Z,28
2017-11-15T11:42:26.398Z,28
2017-11-15T11:43:34.490Z,28
2017-11-15T11:44:42.576Z,28
2017-11-15T11:45:50.665Z,32
2017-11-15T11:46:58.746Z,28
2017-11-15T11:48:06.847Z,28
2017-11-15T11:49:15.127Z,28
2017-11-15T11:50:23.219Z,32
2017-11-15T11:51:31.308Z,28
2017-11-15T11:52:39.401Z,28
2017-11-15T11:53:47.478Z,32
2017-11-15T11:54:55.575Z,32
2017-11-15T11:56:03.678Z,28
2017-11-15T11:57:11.761Z,28
2017-11-15T11:58:19.833Z,28
2017-11-15T11:59:27.970Z,28
2017-11-15T12:00:36.044Z,32
2017-11-15T12:01:44.118Z,28
2017-11-15T12:02:52.203Z,28
2017-11-15T12:04:00.286Z,28
2017-11-15T12:05:08.371Z,28
2017-11-15T12:06:16.454Z,28
2017-11-15T12:07:24.542Z,28
2017-11-15T12:08:32.643Z,28
2017-11-15T12:09:40.724Z,28
2017-11-15T12:10:48.804Z,32
2017-11-15T12:11:56.889Z,28
2017-11-15T12:13:05.004Z,28
2017-11-15T12:14:13.081Z,28
2017-11-15T12:15:21.164Z,28
2017-11-15T12:16:29.248Z,28
2017-11-15T12:17:37.330Z,28
2017-11-15T12:18:45.419Z,28
2017-11-15T12:19:53.514Z,28
2017-11-15T12:21:01.586Z,28
2017-11-15T12:22:09.682Z,28
2017-11-15T12:23:17.771Z,28
2017-11-15T12:24:25.860Z,28
2017-11-15T12:25:33.942Z,28
2017-11-15T12:26:42.026Z,32
2017-11-15T12:27:50.133Z,28
2017-11-15T12:28:58.221Z,28
2017-11-15T12:30:06.315Z,28
2017-11-15T12:31:14.413Z,28
2017-11-15T12:32:22.475Z,28
2017-11-15T12:33:30.558Z,28
2017-11-15T12:34:39.024Z,28
2017-11-15T12:35:46.731Z,32
2017-11-15T12:36:54.819Z,32
2017-11-15T12:38:02.899Z,28
2017-11-15T12:39:11.005Z,28
2017-11-15T12:40:19.064Z,32
2017-11-15T12:41:27.157Z,28
2017-11-15T12:42:35.233Z,28
2017-11-15T12:43:43.321Z,32
2017-11-15T12:44:51.401Z,32
2017-11-15T12:45:59.482Z,28
2017-11-15T12:47:07.575Z,28
2017-11-15T12:48:15.658Z,28
2017-11-15T12:49:23.738Z,28
2017-11-15T12:50:31.835Z,28
2017-11-15T12:51:39.906Z,28
2017-11-15T12:52:47.991Z,32
2017-11-15T12:53:56.075Z,28
2017-11-15T12:55:04.160Z,28
2017-11-15T12:56:12.244Z,28
2017-11-15T12:57:20.329Z,28
2017-11-15T12:58:28.411Z,28
2017-11-15T12:59:36.509Z,28
2017-11-15T13:00:44.580Z,28
2017-11-15T13:01:52.670Z,24
2017-11-15T13:03:00.751Z,28
2017-11-15T13:04:08.831Z,24
2017-11-15T13:05:16.916Z,24
2017-11-15T13:06:25.006Z,24
2017-11-15T13:07:33.087Z,28
2017-11-15T13:08:41.172Z,28
2017-11-15T13:09:49.255Z,24
2017-11-15T13:10:57.340Z,28
2017-11-15T13:12:05.423Z,24
2017-11-15T13:13:13.510Z,28
2017-11-15T13:14:21.606Z,28
2017-11-15T13:15:29.677Z,24
2017-11-15T13:16:37.760Z,24
2017-11-15T13:17:45.847Z,24
2017-11-15T13:18:53.940Z,24
2017-11-15T13:20:02.011Z,24
2017-11-15T13:21:10.103Z,24
2017-11-15T13:22:18.184Z,24
2017-11-15T13:23:26.263Z,24
2017-11-15T13:24:34.346Z,24
2017-11-15T13:25:42.430Z,24
2017-11-15T13:26:50.513Z,24
2017-11-15T13:27:58.600Z,24
2017-11-15T13:29:06.686Z,24
2017-11-15T13:30:15.134Z,24
2017-11-15T13:31:22.854Z,24
2017-11-15T13:32:30.953Z,24
2017-11-15T13:33:39.037Z,24
2017-11-15T13:34:47.118Z,24
2017-11-15T13:35:55.198Z,24
2017-11-15T13:37:03.296Z,24
2017-11-15T13:38:11.379Z,24
2017-11-15T13:39:19.466Z,24
2017-11-15T13:40:27.549Z,24
2017-11-15T13:41:35.638Z,24
2017-11-15T13:42:43.719Z,24
2017-11-15T13:43:51.806Z,28
2017-11-15T13:44:59.898Z,28
2017-11-15T13:46:07.981Z,28
2017-11-15T13:47:16.064Z,28
2017-11-15T13:48:24.147Z,32
2017-11-15T13:49:32.229Z,32
2017-11-15T13:50:40.315Z,32
2017-11-15T13:51:48.405Z,36
2017-11-15T13:52:56.482Z,36
2017-11-15T13:54:04.570Z,36
2017-11-15T13:55:12.662Z,32
2017-11-15T13:56:20.746Z,32
2017-11-15T13:57:28.823Z,36
2017-11-15T13:58:36.902Z,32
2017-11-15T13:59:45.429Z,32
2017-11-15T14:00:53.093Z,32
2017-11-15T14:02:01.166Z,36
2017-11-15T14:03:09.238Z,36
2017-11-15T14:04:17.320Z,36
2017-11-15T14:05:25.402Z,36
2017-11-15T14:06:33.487Z,36
2017-11-15T14:07:41.570Z,36
2017-11-15T14:08:49.666Z,40
2017-11-15T14:09:57.739Z,36
2017-11-15T14:11:05.821Z,36
2017-11-15T14:12:13.966Z,40
2017-11-15T14:13:21.991Z,36
2017-11-15T14:14:30.071Z,36
2017-11-15T14:15:38.157Z,36
2017-11-15T14:16:46.237Z,32
2017-11-15T14:17:54.320Z,32
2017-11-15T14:19:02.406Z,32
2017-11-15T14:20:10.488Z,32
2017-11-15T14:21:18.577Z,28
2017-11-15T14:22:26.663Z,28
2017-11-15T14:23:34.748Z,28
2017-11-15T14:24:42.829Z,28
2017-11-15T14:25:50.913Z,24
2017-11-15T14:26:58.996Z,20
2017-11-15T14:28:07.159Z,20
2017-11-15T14:29:15.244Z,20
2017-11-15T14:30:23.327Z,20
2017-11-15T14:31:31.411Z,16
2017-11-15T14:32:39.494Z,12
2017-11-15T14:33:47.578Z,12
2017-11-15T14:34:55.661Z,8
2017-11-15T14:36:03.746Z,8
2017-11-15T14:37:11.827Z,12
2017-11-15T14:38:19.914Z,12
2017-11-15T14:39:27.997Z,8
2017-11-15T14:40:36.081Z,8
2017-11-15T14:41:44.166Z,8
2017-11-15T14:42:52.251Z,8
2017-11-15T14:44:00.332Z,8
2017-11-15T14:45:08.412Z,8
2017-11-15T14:46:16.495Z,8
2017-11-15T14:47:24.584Z,4
2017-11-15T14:48:32.671Z,4
2017-11-15T14:49:40.749Z,8
2017-11-15T14:50:49.214Z,8
2017-11-15T14:51:56.914Z,8
2017-11-15T14:53:05.002Z,8
2017-11-15T14:54:13.080Z,8
2017-11-15T14:55:21.165Z,8
2017-11-15T14:56:29.248Z,8
2017-11-15T14:57:37.340Z,8
2017-11-15T14:58:45.413Z,8
2017-11-15T14:59:53.502Z,8
2017-11-15T15:01:01.590Z,8
2017-11-15T15:02:09.674Z,4
2017-11-15T15:03:17.755Z,4
2017-11-15T15:04:25.835Z,4
2017-11-15T15:05:33.920Z,4
2017-11-15T15:06:42.003Z,4
2017-11-15T15:07:50.088Z,4
2017-11-15T15:08:58.171Z,4
2017-11-15T15:10:06.270Z,4
2017-11-15T15:11:14.340Z,4
2017-11-15T15:12:22.423Z,4
2017-11-15T15:13:30.514Z,4
2017-11-15T15:14:38.586Z,8
2017-11-15T15:15:46.685Z,4
2017-11-15T15:16:54.780Z,4
2017-11-15T15:18:02.842Z,4
2017-11-15T15:19:10.927Z,4
2017-11-15T15:20:19.016Z,4
2017-11-15T15:21:27.092Z,4
2017-11-15T15:22:35.174Z,0
2017-11-15T15:23:43.265Z,4
2017-11-15T15:24:51.340Z,4
2017-11-15T15:25:59.424Z,4
2017-11-15T15:27:07.506Z,4
2017-11-15T15:28:15.592Z,4
2017-11-15T15:29:23.684Z,4
2017-11-15T15:30:31.787Z,0
2017-11-15T15:31:39.853Z,0
2017-11-15T15:32:47.934Z,0
2017-11-15T15:33:56.082Z,0
2017-11-15T15:35:04.422Z,0
2017-11-15T15:36:12.516Z,0
2017-11-15T15:37:20.589Z,0
2017-11-15T15:38:28.674Z,4
2017-11-15T15:39:36.756Z,4
2017-11-15T15:40:44.872Z,0
2017-11-15T15:41:52.930Z,0
2017-11-15T15:43:01.006Z,0
2017-11-15T15:44:09.089Z,0
2017-11-15T15:45:17.173Z,0
2017-11-15T15:46:25.255Z,0
2017-11-15T15:47:33.335Z,0
2017-11-15T15:48:41.430Z,0
2017-11-15T15:49:49.510Z,0
2017-11-15T15:50:57.585Z,0
2017-11-15T15:52:05.670Z,0
2017-11-15T15:53:13.757Z,0
2017-11-15T15:54:21.840Z,0
2017-11-15T15:55:29.917Z,0
2017-11-15T15:56:38.000Z,0
2017-11-15T15:57:46.107Z,0
2017-11-15T15:58:54.166Z,0
2017-11-15T16:00:02.257Z,0
2017-11-15T16:01:10.330Z,0
2017-11-15T16:02:18.417Z,0
2017-11-15T16:03:26.501Z,0
2017-11-15T16:04:34.584Z,0
2017-11-15T16:05:42.667Z,0
2017-11-15T16:06:50.744Z,0
2017-11-15T16:07:58.833Z,0
2017-11-15T16:09:06.916Z,0
2017-11-15T16:10:14.996Z,0
2017-11-15T16:11:23.076Z,0
2017-11-15T16:12:31.161Z,0
2017-11-15T16:13:39.251Z,0
2017-11-15T16:14:47.332Z,0
2017-11-15T16:15:55.415Z,0
2017-11-15T16:17:03.500Z,0
2017-11-15T16:18:11.609Z,0
2017-11-15T16:19:19.679Z,0
2017-11-15T16:20:27.759Z,0
2017-11-15T16:21:35.840Z,0
2017-11-15T16:22:43.923Z,0
2017-11-15T16:23:52.005Z,0
2017-11-15T16:25:00.088Z,0
2017-11-15T16:26:08.173Z,0
2017-11-15T16:27:16.254Z,0
2017-11-15T16:28:24.337Z,0
2017-11-15T16:29:32.420Z,0
2017-11-15T16:30:40.502Z,0
2017-11-15T16:31:48.584Z,0
2017-11-15T16:32:56.682Z,0